sensor_id;sensor_type;location;lat;lon;timestamp;P1;durP1;ratioP1;P2;durP2;ratioP2
62994;SDS011;49086;52.300;4.850;2022-09-09T00:02:33;4.13;;;1.83;;
62994;SDS011;49086;52.300;4.850;2022-09-09T00:05:25;4.43;;;1.88;;
62994;SDS011;49086;52.300;4.850;2022-09-09T00:08:25;4.78;;;2.13;;
62994;SDS011;49086;52.300;4.850;2022-09-09T00:11:46;4.15;;;1.98;;
62994;SDS011;49086;52.300;4.850;2022-09-09T00:14:23;6.47;;;2.13;;
62994;SDS011;49086;52.300;4.850;2022-09-09T00:21:07;4.75;;;2.45;;
62994;SDS011;49086;52.300;4.850;2022-09-09T00:23:47;5.32;;;2.70;;
62994;SDS011;49086;52.300;4.850;2022-09-09T00:26:42;5.35;;;2.40;;
62994;SDS011;49086;52.300;4.850;2022-09-09T00:32:28;5.05;;;2.92;;
62994;SDS011;49086;52.300;4.850;2022-09-09T00:34:57;9.55;;;3.20;;
62994;SDS011;49086;52.300;4.850;2022-09-09T00:37:40;6.68;;;3.40;;
62994;SDS011;49086;52.300;4.850;2022-09-09T00:43:40;5.18;;;3.17;;
62994;SDS011;49086;52.300;4.850;2022-09-09T00:46:32;7.45;;;4.13;;
62994;SDS011;49086;52.300;4.850;2022-09-09T00:52:36;8.70;;;3.72;;
62994;SDS011;49086;52.300;4.850;2022-09-09T00:59:08;5.93;;;4.35;;
62994;SDS011;49086;52.300;4.850;2022-09-09T01:01:40;7.53;;;4.43;;
62994;SDS011;49086;52.300;4.850;2022-09-09T01:04:19;5.85;;;3.75;;
62994;SDS011;49086;52.300;4.850;2022-09-09T01:07:03;10.57;;;5.47;;
62994;SDS011;49086;52.300;4.850;2022-09-09T01:09:50;8.80;;;4.60;;
62994;SDS011;49086;52.300;4.850;2022-09-09T01:12:40;9.52;;;5.30;;
62994;SDS011;49086;52.300;4.850;2022-09-09T01:15:25;11.17;;;4.80;;
62994;SDS011;49086;52.300;4.850;2022-09-09T01:18:15;8.55;;;4.88;;
62994;SDS011;49086;52.300;4.850;2022-09-09T01:24:19;9.68;;;5.88;;
62994;SDS011;49086;52.300;4.850;2022-09-09T01:26:56;9.55;;;5.82;;
62994;SDS011;49086;52.300;4.850;2022-09-09T01:30:14;12.23;;;6.18;;
62994;SDS011;49086;52.300;4.850;2022-09-09T01:32:49;8.57;;;5.97;;
62994;SDS011;49086;52.300;4.850;2022-09-09T01:38:22;10.35;;;6.10;;
62994;SDS011;49086;52.300;4.850;2022-09-09T01:40:51;10.60;;;6.72;;
62994;SDS011;49086;52.300;4.850;2022-09-09T01:43:39;13.38;;;6.88;;
62994;SDS011;49086;52.300;4.850;2022-09-09T01:46:10;9.55;;;6.75;;
62994;SDS011;49086;52.300;4.850;2022-09-09T01:49:06;8.88;;;6.63;;
62994;SDS011;49086;52.300;4.850;2022-09-09T01:51:54;9.75;;;7.15;;
62994;SDS011;49086;52.300;4.850;2022-09-09T01:54:38;10.75;;;6.57;;
62994;SDS011;49086;52.300;4.850;2022-09-09T01:57:21;10.00;;;6.97;;
62994;SDS011;49086;52.300;4.850;2022-09-09T02:00:14;7.88;;;6.55;;
62994;SDS011;49086;52.300;4.850;2022-09-09T02:03:22;10.10;;;6.97;;
62994;SDS011;49086;52.300;4.850;2022-09-09T02:08:59;10.77;;;6.60;;
62994;SDS011;49086;52.300;4.850;2022-09-09T02:11:30;11.48;;;7.43;;
62994;SDS011;49086;52.300;4.850;2022-09-09T02:17:10;12.27;;;6.97;;
62994;SDS011;49086;52.300;4.850;2022-09-09T02:19:52;13.18;;;7.70;;
62994;SDS011;49086;52.300;4.850;2022-09-09T02:22:41;10.52;;;7.10;;
62994;SDS011;49086;52.300;4.850;2022-09-09T02:25:39;11.95;;;7.57;;
62994;SDS011;49086;52.300;4.850;2022-09-09T02:28:13;9.70;;;7.00;;
62994;SDS011;49086;52.300;4.850;2022-09-09T02:30:45;8.85;;;6.32;;
62994;SDS011;49086;52.300;4.850;2022-09-09T02:33:22;10.93;;;6.70;;
62994;SDS011;49086;52.300;4.850;2022-09-09T02:39:15;10.48;;;6.50;;
62994;SDS011;49086;52.300;4.850;2022-09-09T02:42:03;7.75;;;5.82;;
62994;SDS011;49086;52.300;4.850;2022-09-09T02:44:41;9.13;;;6.07;;
62994;SDS011;49086;52.300;4.850;2022-09-09T02:53:09;10.70;;;6.38;;
62994;SDS011;49086;52.300;4.850;2022-09-09T02:55:46;10.60;;;6.40;;
62994;SDS011;49086;52.300;4.850;2022-09-09T02:58:41;10.25;;;5.90;;
62994;SDS011;49086;52.300;4.850;2022-09-09T03:01:18;10.52;;;6.18;;
62994;SDS011;49086;52.300;4.850;2022-09-09T03:04:16;8.23;;;6.05;;
62994;SDS011;49086;52.300;4.850;2022-09-09T03:07:31;12.77;;;5.93;;
62994;SDS011;49086;52.300;4.850;2022-09-09T03:10:28;8.20;;;5.97;;
62994;SDS011;49086;52.300;4.850;2022-09-09T03:13:03;7.45;;;5.20;;
62994;SDS011;49086;52.300;4.850;2022-09-09T03:15:36;10.65;;;5.70;;
62994;SDS011;49086;52.300;4.850;2022-09-09T03:18:33;9.35;;;5.70;;
62994;SDS011;49086;52.300;4.850;2022-09-09T03:21:27;9.35;;;5.45;;
62994;SDS011;49086;52.300;4.850;2022-09-09T03:23:55;9.20;;;6.05;;
62994;SDS011;49086;52.300;4.850;2022-09-09T03:26:43;10.45;;;5.45;;
62994;SDS011;49086;52.300;4.850;2022-09-09T03:29:25;10.68;;;6.43;;
62994;SDS011;49086;52.300;4.850;2022-09-09T03:31:52;14.80;;;6.13;;
62994;SDS011;49086;52.300;4.850;2022-09-09T03:34:24;11.43;;;6.28;;
62994;SDS011;49086;52.300;4.850;2022-09-09T03:37:06;11.60;;;6.75;;
62994;SDS011;49086;52.300;4.850;2022-09-09T03:39:40;9.68;;;6.53;;
62994;SDS011;49086;52.300;4.850;2022-09-09T03:42:34;11.18;;;5.95;;
62994;SDS011;49086;52.300;4.850;2022-09-09T03:45:14;13.20;;;7.07;;
62994;SDS011;49086;52.300;4.850;2022-09-09T03:47:49;14.38;;;6.82;;
62994;SDS011;49086;52.300;4.850;2022-09-09T03:50:58;11.98;;;6.90;;
62994;SDS011;49086;52.300;4.850;2022-09-09T03:53:33;10.90;;;6.38;;
62994;SDS011;49086;52.300;4.850;2022-09-09T03:56:25;14.52;;;7.45;;
62994;SDS011;49086;52.300;4.850;2022-09-09T03:59:11;11.10;;;6.57;;
62994;SDS011;49086;52.300;4.850;2022-09-09T04:01:44;11.90;;;7.13;;
62994;SDS011;49086;52.300;4.850;2022-09-09T04:04:23;13.82;;;7.05;;
62994;SDS011;49086;52.300;4.850;2022-09-09T04:06:48;9.63;;;6.82;;
62994;SDS011;49086;52.300;4.850;2022-09-09T04:09:17;10.02;;;6.90;;
62994;SDS011;49086;52.300;4.850;2022-09-09T04:11:52;12.57;;;6.57;;
62994;SDS011;49086;52.300;4.850;2022-09-09T04:14:49;11.88;;;6.05;;
62994;SDS011;49086;52.300;4.850;2022-09-09T04:17:22;12.45;;;7.15;;
62994;SDS011;49086;52.300;4.850;2022-09-09T04:20:10;9.35;;;6.70;;
62994;SDS011;49086;52.300;4.850;2022-09-09T04:22:50;12.10;;;6.82;;
62994;SDS011;49086;52.300;4.850;2022-09-09T04:25:43;9.80;;;6.30;;
62994;SDS011;49086;52.300;4.850;2022-09-09T04:28:30;10.45;;;6.30;;
62994;SDS011;49086;52.300;4.850;2022-09-09T04:31:07;11.65;;;6.38;;
62994;SDS011;49086;52.300;4.850;2022-09-09T04:33:42;8.18;;;5.57;;
62994;SDS011;49086;52.300;4.850;2022-09-09T04:36:14;9.70;;;5.57;;
62994;SDS011;49086;52.300;4.850;2022-09-09T04:38:52;8.95;;;5.35;;
62994;SDS011;49086;52.300;4.850;2022-09-09T04:41:25;10.13;;;4.93;;
62994;SDS011;49086;52.300;4.850;2022-09-09T04:43:56;11.23;;;5.07;;
62994;SDS011;49086;52.300;4.850;2022-09-09T04:46:48;7.85;;;5.05;;
62994;SDS011;49086;52.300;4.850;2022-09-09T04:49:21;11.43;;;4.85;;
62994;SDS011;49086;52.300;4.850;2022-09-09T04:52:27;9.18;;;4.90;;
62994;SDS011;49086;52.300;4.850;2022-09-09T04:54:59;7.75;;;4.35;;
62994;SDS011;49086;52.300;4.850;2022-09-09T04:58:11;8.90;;;4.57;;
62994;SDS011;49086;52.300;4.850;2022-09-09T05:00:39;8.98;;;4.85;;
62994;SDS011;49086;52.300;4.850;2022-09-09T05:03:07;11.07;;;4.35;;
62994;SDS011;49086;52.300;4.850;2022-09-09T05:05:49;8.60;;;4.30;;
62994;SDS011;49086;52.300;4.850;2022-09-09T05:08:41;10.65;;;4.47;;
62994;SDS011;49086;52.300;4.850;2022-09-09T05:11:15;7.65;;;3.72;;
62994;SDS011;49086;52.300;4.850;2022-09-09T05:13:59;11.13;;;4.27;;
62994;SDS011;49086;52.300;4.850;2022-09-09T05:16:27;9.00;;;3.20;;
62994;SDS011;49086;52.300;4.850;2022-09-09T05:18:57;8.75;;;3.45;;
62994;SDS011;49086;52.300;4.850;2022-09-09T05:21:25;6.40;;;3.78;;
62994;SDS011;49086;52.300;4.850;2022-09-09T05:23:56;6.30;;;3.38;;
62994;SDS011;49086;52.300;4.850;2022-09-09T05:26:28;6.45;;;3.47;;
62994;SDS011;49086;52.300;4.850;2022-09-09T05:29:01;7.78;;;3.45;;
62994;SDS011;49086;52.300;4.850;2022-09-09T05:31:29;7.10;;;3.53;;
62994;SDS011;49086;52.300;4.850;2022-09-09T05:34:04;7.63;;;3.88;;
62994;SDS011;49086;52.300;4.850;2022-09-09T05:36:34;7.30;;;3.38;;
62994;SDS011;49086;52.300;4.850;2022-09-09T05:39:06;7.53;;;3.40;;
62994;SDS011;49086;52.300;4.850;2022-09-09T05:41:44;5.28;;;3.15;;
62994;SDS011;49086;52.300;4.850;2022-09-09T05:44:28;8.38;;;3.78;;
62994;SDS011;49086;52.300;4.850;2022-09-09T05:46:57;9.13;;;3.55;;
62994;SDS011;49086;52.300;4.850;2022-09-09T05:49:28;8.65;;;3.50;;
62994;SDS011;49086;52.300;4.850;2022-09-09T05:51:56;9.00;;;3.97;;
62994;SDS011;49086;52.300;4.850;2022-09-09T05:54:30;7.90;;;3.10;;
62994;SDS011;49086;52.300;4.850;2022-09-09T05:56:58;6.15;;;3.05;;
62994;SDS011;49086;52.300;4.850;2022-09-09T05:59:25;8.98;;;3.40;;
62994;SDS011;49086;52.300;4.850;2022-09-09T06:01:52;7.80;;;3.20;;
62994;SDS011;49086;52.300;4.850;2022-09-09T06:04:22;7.88;;;3.42;;
62994;SDS011;49086;52.300;4.850;2022-09-09T06:06:49;8.57;;;5.00;;
62994;SDS011;49086;52.300;4.850;2022-09-09T06:09:19;5.88;;;3.50;;
62994;SDS011;49086;52.300;4.850;2022-09-09T06:11:52;8.60;;;3.03;;
62994;SDS011;49086;52.300;4.850;2022-09-09T06:14:25;12.05;;;3.30;;
62994;SDS011;49086;52.300;4.850;2022-09-09T06:16:52;10.25;;;3.47;;
62994;SDS011;49086;52.300;4.850;2022-09-09T06:19:18;7.00;;;2.92;;
62994;SDS011;49086;52.300;4.850;2022-09-09T06:21:45;7.30;;;3.13;;
62994;SDS011;49086;52.300;4.850;2022-09-09T06:24:15;8.98;;;3.10;;
62994;SDS011;49086;52.300;4.850;2022-09-09T06:26:43;6.32;;;3.17;;
62994;SDS011;49086;52.300;4.850;2022-09-09T06:29:11;7.38;;;2.75;;
62994;SDS011;49086;52.300;4.850;2022-09-09T06:31:40;9.02;;;3.28;;
62994;SDS011;49086;52.300;4.850;2022-09-09T06:34:16;9.18;;;3.42;;
62994;SDS011;49086;52.300;4.850;2022-09-09T06:36:43;7.55;;;3.28;;
62994;SDS011;49086;52.300;4.850;2022-09-09T06:39:12;7.10;;;2.60;;
62994;SDS011;49086;52.300;4.850;2022-09-09T06:41:44;7.32;;;3.15;;
62994;SDS011;49086;52.300;4.850;2022-09-09T06:44:10;6.38;;;2.90;;
62994;SDS011;49086;52.300;4.850;2022-09-09T06:46:42;8.35;;;2.53;;
62994;SDS011;49086;52.300;4.850;2022-09-09T06:49:09;9.50;;;3.10;;
62994;SDS011;49086;52.300;4.850;2022-09-09T06:51:37;7.20;;;2.67;;
62994;SDS011;49086;52.300;4.850;2022-09-09T06:54:08;6.93;;;2.78;;
62994;SDS011;49086;52.300;4.850;2022-09-09T06:56:55;7.15;;;2.67;;
62994;SDS011;49086;52.300;4.850;2022-09-09T06:59:22;5.38;;;2.40;;
62994;SDS011;49086;52.300;4.850;2022-09-09T07:01:48;6.85;;;2.65;;
62994;SDS011;49086;52.300;4.850;2022-09-09T07:04:17;7.65;;;2.60;;
62994;SDS011;49086;52.300;4.850;2022-09-09T07:06:53;7.45;;;2.97;;
62994;SDS011;49086;52.300;4.850;2022-09-09T07:09:20;6.72;;;2.53;;
62994;SDS011;49086;52.300;4.850;2022-09-09T07:11:49;8.70;;;3.28;;
62994;SDS011;49086;52.300;4.850;2022-09-09T07:14:24;6.68;;;2.90;;
62994;SDS011;49086;52.300;4.850;2022-09-09T07:16:53;11.68;;;3.30;;
62994;SDS011;49086;52.300;4.850;2022-09-09T07:19:18;9.50;;;3.15;;
62994;SDS011;49086;52.300;4.850;2022-09-09T07:21:47;9.88;;;3.70;;
62994;SDS011;49086;52.300;4.850;2022-09-09T07:26:53;8.87;;;3.37;;
62994;SDS011;49086;52.300;4.850;2022-09-09T07:29:19;8.95;;;3.53;;
62994;SDS011;49086;52.300;4.850;2022-09-09T07:31:47;11.05;;;4.40;;
62994;SDS011;49086;52.300;4.850;2022-09-09T07:34:16;8.50;;;3.97;;
62994;SDS011;49086;52.300;4.850;2022-09-09T07:36:48;16.02;;;3.95;;
62994;SDS011;49086;52.300;4.850;2022-09-09T07:39:20;13.50;;;4.05;;
62994;SDS011;49086;52.300;4.850;2022-09-09T07:41:53;9.73;;;3.92;;
62994;SDS011;49086;52.300;4.850;2022-09-09T07:44:23;14.68;;;4.38;;
62994;SDS011;49086;52.300;4.850;2022-09-09T07:46:51;12.10;;;4.30;;
62994;SDS011;49086;52.300;4.850;2022-09-09T07:49:20;8.85;;;4.13;;
62994;SDS011;49086;52.300;4.850;2022-09-09T07:51:47;14.95;;;3.88;;
62994;SDS011;49086;52.300;4.850;2022-09-09T07:54:15;10.48;;;4.38;;
62994;SDS011;49086;52.300;4.850;2022-09-09T07:56:45;7.22;;;3.90;;
62994;SDS011;49086;52.300;4.850;2022-09-09T07:59:15;9.60;;;4.53;;
62994;SDS011;49086;52.300;4.850;2022-09-09T08:01:47;11.80;;;4.55;;
62994;SDS011;49086;52.300;4.850;2022-09-09T08:04:18;9.38;;;4.47;;
62994;SDS011;49086;52.300;4.850;2022-09-09T08:06:48;9.98;;;3.80;;
62994;SDS011;49086;52.300;4.850;2022-09-09T08:09:44;10.27;;;4.25;;
62994;SDS011;49086;52.300;4.850;2022-09-09T08:12:12;10.68;;;4.30;;
62994;SDS011;49086;52.300;4.850;2022-09-09T08:15:21;8.23;;;4.35;;
62994;SDS011;49086;52.300;4.850;2022-09-09T08:17:52;9.38;;;4.43;;
62994;SDS011;49086;52.300;4.850;2022-09-09T08:20:18;9.40;;;4.32;;
62994;SDS011;49086;52.300;4.850;2022-09-09T08:22:49;9.48;;;3.63;;
62994;SDS011;49086;52.300;4.850;2022-09-09T08:25:23;9.85;;;5.00;;
62994;SDS011;49086;52.300;4.850;2022-09-09T08:28:29;9.77;;;4.68;;
62994;SDS011;49086;52.300;4.850;2022-09-09T08:31:09;15.98;;;5.15;;
62994;SDS011;49086;52.300;4.850;2022-09-09T08:34:02;12.07;;;4.22;;
62994;SDS011;49086;52.300;4.850;2022-09-09T08:36:38;10.35;;;4.63;;
62994;SDS011;49086;52.300;4.850;2022-09-09T08:39:27;10.90;;;4.22;;
62994;SDS011;49086;52.300;4.850;2022-09-09T08:42:17;10.32;;;5.25;;
62994;SDS011;49086;52.300;4.850;2022-09-09T08:50:48;10.85;;;4.18;;
62994;SDS011;49086;52.300;4.850;2022-09-09T08:53:39;8.18;;;3.88;;
62994;SDS011;49086;52.300;4.850;2022-09-09T08:56:11;9.00;;;3.90;;
62994;SDS011;49086;52.300;4.850;2022-09-09T08:58:44;8.68;;;3.50;;
62994;SDS011;49086;52.300;4.850;2022-09-09T09:11:16;8.18;;;4.15;;
62994;SDS011;49086;52.300;4.850;2022-09-09T09:13:47;6.88;;;3.92;;
62994;SDS011;49086;52.300;4.850;2022-09-09T09:16:44;6.97;;;3.83;;
62994;SDS011;49086;52.300;4.850;2022-09-09T09:19:57;9.45;;;4.15;;
62994;SDS011;49086;52.300;4.850;2022-09-09T09:22:27;9.02;;;4.13;;
62994;SDS011;49086;52.300;4.850;2022-09-09T09:28:17;11.55;;;3.88;;
62994;SDS011;49086;52.300;4.850;2022-09-09T09:30:59;7.15;;;3.38;;
62994;SDS011;49086;52.300;4.850;2022-09-09T09:33:46;11.93;;;4.32;;
62994;SDS011;49086;52.300;4.850;2022-09-09T09:39:33;15.77;;;4.28;;
62994;SDS011;49086;52.300;4.850;2022-09-09T09:43:04;9.73;;;3.72;;
62994;SDS011;49086;52.300;4.850;2022-09-09T09:52:23;9.48;;;3.30;;
62994;SDS011;49086;52.300;4.850;2022-09-09T09:55:28;7.10;;;3.28;;
62994;SDS011;49086;52.300;4.850;2022-09-09T09:58:25;8.55;;;3.63;;
62994;SDS011;49086;52.300;4.850;2022-09-09T10:01:20;7.10;;;3.80;;
62994;SDS011;49086;52.300;4.850;2022-09-09T10:04:24;9.05;;;3.55;;
62994;SDS011;49086;52.300;4.850;2022-09-09T10:07:22;7.75;;;3.17;;
62994;SDS011;49086;52.300;4.850;2022-09-09T10:09:59;5.70;;;3.05;;
62994;SDS011;49086;52.300;4.850;2022-09-09T10:20:28;10.90;;;3.40;;
62994;SDS011;49086;52.300;4.850;2022-09-09T10:23:24;8.02;;;3.20;;
62994;SDS011;49086;52.300;4.850;2022-09-09T10:42:12;10.15;;;2.70;;
62994;SDS011;49086;52.300;4.850;2022-09-09T10:57:41;7.18;;;2.50;;
62994;SDS011;49086;52.300;4.850;2022-09-09T11:00:23;5.78;;;2.63;;
62994;SDS011;49086;52.300;4.850;2022-09-09T11:03:17;10.07;;;2.58;;
62994;SDS011;49086;52.300;4.850;2022-09-09T11:06:36;6.72;;;2.63;;
62994;SDS011;49086;52.300;4.850;2022-09-09T11:09:50;11.18;;;2.78;;
62994;SDS011;49086;52.300;4.850;2022-09-09T11:12:26;8.32;;;2.38;;
62994;SDS011;49086;52.300;4.850;2022-09-09T11:15:17;7.68;;;2.35;;
62994;SDS011;49086;52.300;4.850;2022-09-09T11:18:13;5.65;;;2.53;;
62994;SDS011;49086;52.300;4.850;2022-09-09T11:21:31;5.65;;;2.30;;
62994;SDS011;49086;52.300;4.850;2022-09-09T11:28:25;7.82;;;2.90;;
62994;SDS011;49086;52.300;4.850;2022-09-09T11:34:23;9.80;;;2.78;;
62994;SDS011;49086;52.300;4.850;2022-09-09T11:40:28;6.57;;;2.30;;
62994;SDS011;49086;52.300;4.850;2022-09-09T11:43:57;5.22;;;2.10;;
62994;SDS011;49086;52.300;4.850;2022-09-09T11:46:42;6.45;;;2.40;;
62994;SDS011;49086;52.300;4.850;2022-09-09T11:52:47;6.15;;;2.40;;
62994;SDS011;49086;52.300;4.850;2022-09-09T11:55:28;5.22;;;2.15;;
62994;SDS011;49086;52.300;4.850;2022-09-09T11:58:22;6.68;;;2.28;;
62994;SDS011;49086;52.300;4.850;2022-09-09T12:00:53;5.10;;;2.65;;
62994;SDS011;49086;52.300;4.850;2022-09-09T12:03:33;6.70;;;2.13;;
62994;SDS011;49086;52.300;4.850;2022-09-09T12:06:18;4.85;;;2.55;;
62994;SDS011;49086;52.300;4.850;2022-09-09T12:12:40;5.22;;;2.30;;
62994;SDS011;49086;52.300;4.850;2022-09-09T12:18:05;6.40;;;2.53;;
62994;SDS011;49086;52.300;4.850;2022-09-09T12:20:40;4.78;;;2.08;;
62994;SDS011;49086;52.300;4.850;2022-09-09T12:23:48;6.90;;;2.67;;
62994;SDS011;49086;52.300;4.850;2022-09-09T12:29:29;4.60;;;2.92;;
62994;SDS011;49086;52.300;4.850;2022-09-09T12:34:52;5.82;;;2.60;;
62994;SDS011;49086;52.300;4.850;2022-09-09T12:37:59;5.30;;;2.85;;
62994;SDS011;49086;52.300;4.850;2022-09-09T12:40:28;5.38;;;2.70;;
62994;SDS011;49086;52.300;4.850;2022-09-09T12:42:56;6.68;;;2.92;;
62994;SDS011;49086;52.300;4.850;2022-09-09T12:45:27;7.53;;;3.13;;
62994;SDS011;49086;52.300;4.850;2022-09-09T12:50:48;8.00;;;3.70;;
62994;SDS011;49086;52.300;4.850;2022-09-09T12:53:39;8.55;;;3.55;;
62994;SDS011;49086;52.300;4.850;2022-09-09T12:56:07;6.88;;;3.95;;
62994;SDS011;49086;52.300;4.850;2022-09-09T12:58:47;8.48;;;3.90;;
62994;SDS011;49086;52.300;4.850;2022-09-09T13:01:30;6.68;;;4.53;;
62994;SDS011;49086;52.300;4.850;2022-09-09T13:04:01;7.22;;;3.80;;
62994;SDS011;49086;52.300;4.850;2022-09-09T13:06:29;8.18;;;4.80;;
62994;SDS011;49086;52.300;4.850;2022-09-09T13:09:13;8.75;;;4.90;;
62994;SDS011;49086;52.300;4.850;2022-09-09T13:11:53;11.10;;;5.07;;
62994;SDS011;49086;52.300;4.850;2022-09-09T13:15:09;10.80;;;4.78;;
62994;SDS011;49086;52.300;4.850;2022-09-09T13:18:03;7.38;;;4.55;;
62994;SDS011;49086;52.300;4.850;2022-09-09T13:20:45;11.02;;;4.47;;
62994;SDS011;49086;52.300;4.850;2022-09-09T13:23:20;8.07;;;3.72;;
62994;SDS011;49086;52.300;4.850;2022-09-09T13:26:25;9.05;;;4.28;;
62994;SDS011;49086;52.300;4.850;2022-09-09T13:28:54;4.88;;;3.20;;
62994;SDS011;49086;52.300;4.850;2022-09-09T13:31:36;4.95;;;2.90;;
62994;SDS011;49086;52.300;4.850;2022-09-09T13:34:32;6.97;;;3.25;;
62994;SDS011;49086;52.300;4.850;2022-09-09T13:37:42;5.88;;;3.53;;
62994;SDS011;49086;52.300;4.850;2022-09-09T13:40:30;5.05;;;2.88;;
62994;SDS011;49086;52.300;4.850;2022-09-09T13:43:04;5.68;;;2.85;;
62994;SDS011;49086;52.300;4.850;2022-09-09T13:46:24;4.63;;;2.75;;
62994;SDS011;49086;52.300;4.850;2022-09-09T13:51:41;5.53;;;2.85;;
62994;SDS011;49086;52.300;4.850;2022-09-09T13:54:12;5.53;;;2.58;;
62994;SDS011;49086;52.300;4.850;2022-09-09T13:56:42;6.00;;;3.00;;
62994;SDS011;49086;52.300;4.850;2022-09-09T13:59:16;6.43;;;2.70;;
62994;SDS011;49086;52.300;4.850;2022-09-09T14:01:46;5.43;;;2.70;;
62994;SDS011;49086;52.300;4.850;2022-09-09T14:04:20;6.68;;;2.40;;
62994;SDS011;49086;52.300;4.850;2022-09-09T14:06:46;6.85;;;2.42;;
62994;SDS011;49086;52.300;4.850;2022-09-09T14:09:14;5.05;;;2.55;;
62994;SDS011;49086;52.300;4.850;2022-09-09T14:11:41;5.78;;;2.60;;
62994;SDS011;49086;52.300;4.850;2022-09-09T14:14:11;4.50;;;2.47;;
62994;SDS011;49086;52.300;4.850;2022-09-09T14:16:41;5.07;;;2.50;;
62994;SDS011;49086;52.300;4.850;2022-09-09T14:19:12;5.30;;;2.42;;
62994;SDS011;49086;52.300;4.850;2022-09-09T14:21:53;5.03;;;2.97;;
62994;SDS011;49086;52.300;4.850;2022-09-09T14:24:19;4.55;;;1.92;;
62994;SDS011;49086;52.300;4.850;2022-09-09T14:26:46;5.50;;;1.98;;
62994;SDS011;49086;52.300;4.850;2022-09-09T14:29:13;5.90;;;2.50;;
62994;SDS011;49086;52.300;4.850;2022-09-09T14:31:48;4.90;;;1.90;;
62994;SDS011;49086;52.300;4.850;2022-09-09T14:34:13;4.18;;;1.85;;
62994;SDS011;49086;52.300;4.850;2022-09-09T14:36:39;5.93;;;2.03;;
62994;SDS011;49086;52.300;4.850;2022-09-09T14:39:07;5.03;;;1.90;;
62994;SDS011;49086;52.300;4.850;2022-09-09T14:41:38;7.60;;;2.00;;
62994;SDS011;49086;52.300;4.850;2022-09-09T14:44:05;3.15;;;1.63;;
62994;SDS011;49086;52.300;4.850;2022-09-09T14:46:45;3.42;;;1.48;;
62994;SDS011;49086;52.300;4.850;2022-09-09T14:49:24;4.18;;;1.40;;
62994;SDS011;49086;52.300;4.850;2022-09-09T14:51:58;3.60;;;1.30;;
62994;SDS011;49086;52.300;4.850;2022-09-09T14:54:35;8.27;;;2.15;;
62994;SDS011;49086;52.300;4.850;2022-09-09T14:57:07;3.78;;;1.52;;
62994;SDS011;49086;52.300;4.850;2022-09-09T14:59:35;5.38;;;1.73;;
62994;SDS011;49086;52.300;4.850;2022-09-09T15:02:05;4.95;;;1.70;;
62994;SDS011;49086;52.300;4.850;2022-09-09T15:04:57;4.25;;;1.67;;
62994;SDS011;49086;52.300;4.850;2022-09-09T15:07:25;3.58;;;1.33;;
62994;SDS011;49086;52.300;4.850;2022-09-09T15:10:09;3.13;;;1.20;;
62994;SDS011;49086;52.300;4.850;2022-09-09T15:12:36;3.28;;;1.40;;
62994;SDS011;49086;52.300;4.850;2022-09-09T15:15:11;6.30;;;1.63;;
62994;SDS011;49086;52.300;4.850;2022-09-09T15:17:40;5.75;;;1.77;;
62994;SDS011;49086;52.300;4.850;2022-09-09T15:20:15;4.53;;;1.95;;
62994;SDS011;49086;52.300;4.850;2022-09-09T15:26:52;4.22;;;1.60;;
62994;SDS011;49086;52.300;4.850;2022-09-09T15:29:18;4.57;;;1.80;;
62994;SDS011;49086;52.300;4.850;2022-09-09T15:34:50;5.45;;;1.92;;
62994;SDS011;49086;52.300;4.850;2022-09-09T15:37:31;5.90;;;2.30;;
62994;SDS011;49086;52.300;4.850;2022-09-09T15:43:07;5.18;;;2.35;;
62994;SDS011;49086;52.300;4.850;2022-09-09T15:45:38;9.65;;;2.80;;
62994;SDS011;49086;52.300;4.850;2022-09-09T15:48:17;5.22;;;2.38;;
62994;SDS011;49086;52.300;4.850;2022-09-09T15:54:18;6.28;;;2.28;;
62994;SDS011;49086;52.300;4.850;2022-09-09T15:57:28;5.50;;;2.33;;
62994;SDS011;49086;52.300;4.850;2022-09-09T16:00:11;8.27;;;2.60;;
62994;SDS011;49086;52.300;4.850;2022-09-09T16:03:07;5.32;;;2.40;;
62994;SDS011;49086;52.300;4.850;2022-09-09T16:09:34;4.35;;;1.10;;
62994;SDS011;49086;52.300;4.850;2022-09-09T16:12:13;2.15;;;1.05;;
62994;SDS011;49086;52.300;4.850;2022-09-09T16:14:43;4.55;;;1.45;;
62994;SDS011;49086;52.300;4.850;2022-09-09T16:17:13;5.15;;;1.25;;
62994;SDS011;49086;52.300;4.850;2022-09-09T16:19:42;4.03;;;1.60;;
62994;SDS011;49086;52.300;4.850;2022-09-09T16:22:12;4.97;;;1.38;;
62994;SDS011;49086;52.300;4.850;2022-09-09T16:24:43;5.07;;;1.20;;
62994;SDS011;49086;52.300;4.850;2022-09-09T16:27:11;3.95;;;1.23;;
62994;SDS011;49086;52.300;4.850;2022-09-09T16:29:39;4.70;;;1.30;;
62994;SDS011;49086;52.300;4.850;2022-09-09T16:32:07;4.72;;;1.20;;
62994;SDS011;49086;52.300;4.850;2022-09-09T16:34:34;3.47;;;1.17;;
62994;SDS011;49086;52.300;4.850;2022-09-09T16:37:01;4.00;;;1.58;;
62994;SDS011;49086;52.300;4.850;2022-09-09T16:39:28;5.07;;;1.48;;
62994;SDS011;49086;52.300;4.850;2022-09-09T16:41:59;4.18;;;1.35;;
62994;SDS011;49086;52.300;4.850;2022-09-09T16:44:47;3.25;;;1.58;;
62994;SDS011;49086;52.300;4.850;2022-09-09T16:47:22;4.15;;;1.30;;
62994;SDS011;49086;52.300;4.850;2022-09-09T16:49:49;3.88;;;1.40;;
62994;SDS011;49086;52.300;4.850;2022-09-09T16:52:20;6.55;;;1.60;;
62994;SDS011;49086;52.300;4.850;2022-09-09T16:54:46;5.40;;;1.70;;
62994;SDS011;49086;52.300;4.850;2022-09-09T16:57:14;7.22;;;2.03;;
62994;SDS011;49086;52.300;4.850;2022-09-09T16:59:41;4.50;;;1.63;;
62994;SDS011;49086;52.300;4.850;2022-09-09T17:05:38;3.45;;;1.40;;
62994;SDS011;49086;52.300;4.850;2022-09-09T17:08:35;5.65;;;2.00;;
62994;SDS011;49086;52.300;4.850;2022-09-09T17:11:37;5.72;;;1.70;;
62994;SDS011;49086;52.300;4.850;2022-09-09T17:14:25;5.30;;;1.70;;
62994;SDS011;49086;52.300;4.850;2022-09-09T17:17:23;8.27;;;1.75;;
62994;SDS011;49086;52.300;4.850;2022-09-09T17:19:57;5.30;;;1.50;;
62994;SDS011;49086;52.300;4.850;2022-09-09T17:23:00;6.30;;;1.73;;
62994;SDS011;49086;52.300;4.850;2022-09-09T17:25:28;4.70;;;1.92;;
62994;SDS011;49086;52.300;4.850;2022-09-09T17:28:23;6.07;;;1.85;;
62994;SDS011;49086;52.300;4.850;2022-09-09T17:31:15;6.28;;;2.15;;
62994;SDS011;49086;52.300;4.850;2022-09-09T17:37:15;7.82;;;3.33;;
62994;SDS011;49086;52.300;4.850;2022-09-09T17:39:48;7.37;;;3.20;;
62994;SDS011;49086;52.300;4.850;2022-09-09T17:42:15;5.68;;;3.20;;
62994;SDS011;49086;52.300;4.850;2022-09-09T17:44:44;8.18;;;3.33;;
62994;SDS011;49086;52.300;4.850;2022-09-09T17:47:10;9.63;;;3.88;;
62994;SDS011;49086;52.300;4.850;2022-09-09T17:49:36;7.03;;;3.67;;
62994;SDS011;49086;52.300;4.850;2022-09-09T17:52:07;12.13;;;3.83;;
62994;SDS011;49086;52.300;4.850;2022-09-09T17:54:36;7.68;;;3.53;;
62994;SDS011;49086;52.300;4.850;2022-09-09T17:57:25;7.72;;;4.40;;
62994;SDS011;49086;52.300;4.850;2022-09-09T17:59:50;9.80;;;4.47;;
62994;SDS011;49086;52.300;4.850;2022-09-09T18:02:17;11.15;;;4.53;;
62994;SDS011;49086;52.300;4.850;2022-09-09T18:04:53;9.88;;;4.50;;
62994;SDS011;49086;52.300;4.850;2022-09-09T18:07:20;11.32;;;5.22;;
62994;SDS011;49086;52.300;4.850;2022-09-09T18:09:51;10.88;;;4.57;;
62994;SDS011;49086;52.300;4.850;2022-09-09T18:12:35;9.52;;;4.85;;
62994;SDS011;49086;52.300;4.850;2022-09-09T18:15:06;11.00;;;4.82;;
62994;SDS011;49086;52.300;4.850;2022-09-09T18:17:37;10.90;;;4.90;;
62994;SDS011;49086;52.300;4.850;2022-09-09T18:20:05;7.93;;;5.43;;
62994;SDS011;49086;52.300;4.850;2022-09-09T18:22:33;7.65;;;4.78;;
62994;SDS011;49086;52.300;4.850;2022-09-09T18:24:58;10.00;;;5.30;;
62994;SDS011;49086;52.300;4.850;2022-09-09T18:27:36;9.60;;;4.88;;
62994;SDS011;49086;52.300;4.850;2022-09-09T18:30:06;11.52;;;5.32;;
62994;SDS011;49086;52.300;4.850;2022-09-09T18:32:33;9.32;;;4.70;;
62994;SDS011;49086;52.300;4.850;2022-09-09T18:35:17;10.65;;;5.57;;
62994;SDS011;49086;52.300;4.850;2022-09-09T18:38:03;7.80;;;4.93;;
62994;SDS011;49086;52.300;4.850;2022-09-09T18:40:36;8.95;;;4.63;;